Time;durP1;ratioP1;P1;durP2;ratioP2;P2;SDS_P1;SDS_P2;PMS_P1;PMS_P2;Temp;Humidity;BMP_temperature;BMP_pressure;BME280_temperature;BME280_humidity;BME280_pressure;Samples;Min_cycle;Max_cycle;Signal;HPM_P1;HPM_P2
2021/05/01 00:02:10;;;;;;;54.25;33.28;;;;;;;-139.48;100.00;61774.03;5040981;28;20132;-69
2021/05/01 00:04:54;;;;;;;58.63;36.38;;;;;;;-139.48;100.00;61774.03;5040810;28;20068;-69
2021/05/01 00:07:39;;;;;;;58.45;35.10;;;;;;;-139.48;100.00;61774.03;5055925;28;20099;-69
2021/05/01 00:10:23;;;;;;;47.95;31.02;;;;;;;-139.48;100.00;61774.03;5026875;28;20051;-69
2021/05/01 00:13:06;;;;;;;48.45;29.17;;;;;;;-139.48;100.00;61774.03;5040803;28;20083;-69
2021/05/01 00:15:50;;;;;;;51.67;32.53;;;;;;;-139.48;100.00;61774.03;5040715;28;20060;-69
2021/05/01 00:18:34;;;;;;;46.40;28.75;;;;;;;-139.48;100.00;61774.03;5040418;28;20048;-69
2021/05/01 00:21:18;;;;;;;46.60;29.33;;;;;;;-139.48;100.00;61774.03;5055753;28;20099;-69
2021/05/01 00:24:02;;;;;;;46.65;29.85;;;;;;;-139.48;100.00;61774.03;5055531;28;20048;-70
2021/05/01 00:26:46;;;;;;;51.58;31.52;;;;;;;-139.48;100.00;61774.03;5026403;28;20044;-69
2021/05/01 00:29:30;;;;;;;55.30;34.33;;;;;;;-139.48;100.00;61774.03;5040500;28;20509;-69
2021/05/01 00:32:14;;;;;;;51.25;32.60;;;;;;;-139.48;100.00;61774.03;5055386;28;20437;-69
2021/05/01 00:34:59;;;;;;;54.40;32.03;;;;;;;-139.48;100.00;61774.03;5041535;28;20052;-69
2021/05/01 00:37:43;;;;;;;49.63;30.65;;;;;;;-139.48;100.00;61774.03;5040076;28;20483;-69
2021/05/01 00:40:27;;;;;;;53.17;31.90;;;;;;;-139.48;100.00;61774.03;5040270;28;20468;-69
2021/05/01 00:43:11;;;;;;;52.75;32.83;;;;;;;-139.48;100.00;61774.03;5040040;28;20044;-69
2021/05/01 00:45:55;;;;;;;54.47;33.85;;;;;;;-139.48;100.00;61774.03;5040192;28;20056;-69
2021/05/01 00:48:39;;;;;;;51.42;31.42;;;;;;;-139.48;100.00;61774.03;5040137;28;20082;-69
2021/05/01 00:51:23;;;;;;;55.35;32.40;;;;;;;-139.48;100.00;61774.03;5040065;28;20119;-69
2021/05/01 00:54:07;;;;;;;55.22;33.42;;;;;;;-139.48;100.00;61774.03;5025789;28;20040;-68
2021/05/01 00:56:51;;;;;;;62.88;36.33;;;;;;;-139.48;100.00;61774.03;5055059;28;20477;-69
2021/05/01 00:59:35;;;;;;;44.83;28.75;;;;;;;-139.48;100.00;61774.03;5039943;28;20519;-69
2021/05/01 01:02:21;;;;;;;46.05;28.85;;;;;;;-139.48;100.00;61774.03;5039715;28;20044;-70
2021/05/01 01:05:06;;;;;;;48.33;29.65;;;;;;;-139.48;100.00;61774.03;5026160;28;20099;-69
2021/05/01 01:07:50;;;;;;;51.40;31.17;;;;;;;-139.48;100.00;61774.03;5054819;28;20556;-69
2021/05/01 01:10:34;;;;;;;60.60;34.72;;;;;;;-139.48;100.00;61774.03;5039554;28;20052;-70
2021/05/01 01:13:19;;;;;;;54.13;32.72;;;;;;;-139.48;100.00;61774.03;5039290;28;20044;-69
2021/05/01 01:16:03;;;;;;;52.75;32.00;;;;;;;-139.48;100.00;61774.03;5054920;28;20106;-69
2021/05/01 01:18:47;;;;;;;53.10;32.65;;;;;;;-139.48;100.00;61774.03;5039482;28;20460;-69
2021/05/01 01:21:48;;;;;;;52.55;32.08;;;;;;;-139.48;100.00;61774.03;5039236;28;20047;-69
2021/05/01 01:24:32;;;;;;;47.08;29.10;;;;;;;-139.48;100.00;61774.03;5039189;28;20036;-69
2021/05/01 01:27:15;;;;;;;50.75;29.90;;;;;;;-139.48;100.00;61774.03;5039389;28;20063;-69
2021/05/01 01:29:59;;;;;;;48.63;29.38;;;;;;;-139.48;100.00;61774.03;5039175;28;20139;-68
2021/05/01 01:32:43;;;;;;;48.17;29.10;;;;;;;-139.48;100.00;61774.03;5054075;28;20048;-69
2021/05/01 01:35:28;;;;;;;53.58;30.85;;;;;;;-139.48;100.00;61774.03;5038815;28;20132;-69
2021/05/01 01:38:12;;;;;;;60.30;34.30;;;;;;;-139.48;100.00;61774.03;5039126;28;20052;-69
2021/05/01 01:40:55;;;;;;;60.05;35.10;;;;;;;-139.48;100.00;61774.03;5025181;28;20048;-69
2021/05/01 01:43:39;;;;;;;50.40;30.17;;;;;;;-139.48;100.00;61774.03;5038999;28;20128;-68
2021/05/01 01:46:23;;;;;;;53.28;30.65;;;;;;;-139.48;100.00;61774.03;5054008;28;20567;-69
2021/05/01 01:49:07;;;;;;;56.22;31.85;;;;;;;-139.48;100.00;61774.03;5054383;28;20072;-69
2021/05/01 01:51:51;;;;;;;57.05;33.58;;;;;;;-139.48;100.00;61774.03;5053934;28;20047;-69
2021/05/01 01:54:35;;;;;;;51.58;29.88;;;;;;;-139.48;100.00;61774.03;5038198;28;20133;-69
2021/05/01 01:57:19;;;;;;;45.47;28.30;;;;;;;-139.48;100.00;61774.03;5053937;28;20060;-69
2021/05/01 02:00:09;;;;;;;47.28;28.48;;;;;;;-139.48;100.00;61774.03;5024857;28;20051;-69
2021/05/01 02:02:53;;;;;;;51.00;29.73;;;;;;;-139.48;100.00;61774.03;5038698;28;20550;-69
2021/05/01 02:05:37;;;;;;;53.15;30.88;;;;;;;-139.48;100.00;61774.03;5024579;28;20450;-70
2021/05/01 02:08:21;;;;;;;52.47;30.95;;;;;;;-139.48;100.00;61774.03;5038640;28;20468;-69
2021/05/01 02:11:05;;;;;;;57.47;32.33;;;;;;;-139.48;100.00;61774.03;5038616;28;20413;-70
2021/05/01 02:13:49;;;;;;;56.22;32.55;;;;;;;-139.48;100.00;61774.03;5038427;28;20048;-69
2021/05/01 02:16:34;;;;;;;57.63;32.83;;;;;;;-139.48;100.00;61774.03;5024553;28;20059;-69
2021/05/01 02:19:18;;;;;;;58.08;33.05;;;;;;;-139.48;100.00;61774.03;5038556;28;20117;-69
2021/05/01 02:22:02;;;;;;;57.38;33.15;;;;;;;-139.48;100.00;61774.03;5024764;28;20155;-70
2021/05/01 02:24:46;;;;;;;55.83;32.38;;;;;;;-139.48;100.00;61774.03;5038060;28;20064;-69
2021/05/01 02:27:30;;;;;;;53.15;30.92;;;;;;;-139.48;100.00;61774.03;5053501;28;20143;-69
2021/05/01 02:30:17;;;;;;;50.70;29.30;;;;;;;-139.48;100.00;61774.03;5038367;28;20418;-69
2021/05/01 02:33:01;;;;;;;58.17;33.00;;;;;;;-139.48;100.00;61774.03;5038221;28;20433;-69
2021/05/01 02:35:45;;;;;;;55.95;32.92;;;;;;;-139.48;100.00;61774.03;5038283;28;20047;-69
2021/05/01 02:38:28;;;;;;;51.88;30.38;;;;;;;-139.48;100.00;61774.03;5037959;28;20071;-69
2021/05/01 02:41:12;;;;;;;55.58;31.92;;;;;;;-139.48;100.00;61774.03;5053063;28;20052;-69
2021/05/01 02:43:56;;;;;;;60.17;32.45;;;;;;;-139.48;100.00;61774.03;5053138;28;20090;-69
2021/05/01 02:46:40;;;;;;;52.80;31.40;;;;;;;-139.48;100.00;61774.03;5053258;28;20052;-69
2021/05/01 02:49:24;;;;;;;52.97;30.83;;;;;;;-139.48;100.00;61774.03;5037916;28;20476;-67
2021/05/01 02:52:08;;;;;;;48.45;27.85;;;;;;;-139.48;100.00;61774.03;5038074;28;20040;-69
2021/05/01 02:54:52;;;;;;;47.65;27.25;;;;;;;-139.48;100.00;61774.03;5038041;28;20483;-69
2021/05/01 02:57:37;;;;;;;50.05;27.70;;;;;;;-139.48;100.00;61774.03;5038286;28;20128;-69
2021/05/01 03:00:23;;;;;;;56.10;31.60;;;;;;;-139.48;100.00;61774.03;5038113;28;20044;-69
2021/05/01 03:03:07;;;;;;;47.15;27.38;;;;;;;-139.48;100.00;61774.03;5053139;28;20048;-69
2021/05/01 03:05:51;;;;;;;47.83;28.10;;;;;;;-139.48;100.00;61774.03;5040992;28;20071;-69
2021/05/01 03:08:35;;;;;;;52.03;29.33;;;;;;;-139.48;100.00;61774.03;5057120;28;20063;-69
2021/05/01 03:11:19;;;;;;;53.30;30.42;;;;;;;-139.48;100.00;61774.03;5042008;28;20083;-69
2021/05/01 03:14:03;;;;;;;56.40;31.52;;;;;;;-139.48;100.00;61774.03;5041467;28;20119;-69
2021/05/01 03:16:47;;;;;;;50.53;29.77;;;;;;;-139.48;100.00;61774.03;5042222;28;20563;-69
2021/05/01 03:19:31;;;;;;;49.55;29.63;;;;;;;-139.48;100.00;61774.03;5056919;28;20091;-69
2021/05/01 03:22:15;;;;;;;52.75;30.08;;;;;;;-139.48;100.00;61774.03;5028067;28;20552;-69
2021/05/01 03:24:59;;;;;;;55.50;30.95;;;;;;;-139.48;100.00;61774.03;5041474;28;20512;-69
2021/05/01 03:27:44;;;;;;;45.20;26.83;;;;;;;-139.48;100.00;61774.03;5041989;28;20447;-69
2021/05/01 03:30:28;;;;;;;51.50;29.17;;;;;;;-139.48;100.00;61774.03;5056738;28;20063;-69
2021/05/01 03:33:11;;;;;;;54.28;31.33;;;;;;;-139.48;100.00;61774.03;5041299;28;20191;-70
2021/05/01 03:35:56;;;;;;;67.78;33.78;;;;;;;-139.48;100.00;61774.03;5027525;28;20068;-69
2021/05/01 03:38:40;;;;;;;68.20;35.08;;;;;;;-139.48;100.00;61774.03;5041766;28;20043;-69
2021/05/01 03:41:24;;;;;;;;;;;;;;;-139.48;100.00;61774.03;5056678;28;20055;-69
2021/05/01 03:44:08;;;;;;;77.97;37.53;;;;;;;-139.48;100.00;61774.03;5041239;28;20399;-69
2021/05/01 03:46:52;;;;;;;72.78;37.38;;;;;;;-139.48;100.00;61774.03;5056417;28;20052;-69
2021/05/01 03:49:36;;;;;;;67.78;36.17;;;;;;;-139.48;100.00;61774.03;5056666;28;20067;-69
2021/05/01 03:52:20;;;;;;;105.25;38.63;;;;;;;-139.48;100.00;61774.03;5041059;28;20695;-69
2021/05/01 03:55:05;;;;;;;75.80;39.45;;;;;;;-139.48;100.00;61774.03;5041088;28;20060;-69
2021/05/01 03:57:50;;;;;;;191.07;46.05;;;;;;;-139.48;100.00;61774.03;5027362;28;20059;-68
2021/05/01 04:00:34;;;;;;;83.25;39.33;;;;;;;-139.48;100.00;61774.03;5056104;28;20413;-69
2021/05/01 04:03:18;;;;;;;87.22;39.35;;;;;;;-139.48;100.00;61774.03;5055975;28;20560;-70
2021/05/01 04:06:02;;;;;;;76.57;38.58;;;;;;;-139.48;100.00;61774.03;5040953;28;20520;-69
2021/05/01 04:08:46;;;;;;;70.07;37.78;;;;;;;-139.48;100.00;61774.03;5055782;28;20052;-69
2021/05/01 04:11:30;;;;;;;68.38;36.50;;;;;;;-139.48;100.00;61774.03;5055732;28;20101;-69
2021/05/01 04:14:13;;;;;;;69.88;36.30;;;;;;;-139.48;100.00;61774.03;5040634;28;20040;-69
2021/05/01 04:16:57;;;;;;;69.80;34.92;;;;;;;-139.48;100.00;61774.03;5055063;28;20055;-69
2021/05/01 04:19:41;;;;;;;80.68;34.10;;;;;;;-139.48;100.00;61774.03;5040697;28;20121;-69
2021/05/01 04:22:25;;;;;;;145.23;34.10;;;;;;;-139.48;100.00;61774.03;5055917;28;20134;-69
2021/05/01 04:25:09;;;;;;;77.95;35.42;;;;;;;-139.48;100.00;61774.03;5055349;28;20087;-69
2021/05/01 04:27:53;;;;;;;55.53;31.15;;;;;;;-139.48;100.00;61774.03;5040520;28;20079;-69
2021/05/01 04:30:37;;;;;;;107.88;35.35;;;;;;;-139.48;100.00;61774.03;5040245;28;20103;-69
2021/05/01 04:33:22;;;;;;;49.58;30.13;;;;;;;-139.48;100.00;61774.03;5055199;28;20079;-70
2021/05/01 04:36:06;;;;;;;64.40;33.88;;;;;;;-139.48;100.00;61774.03;5040146;28;20047;-70
2021/05/01 04:38:50;;;;;;;58.67;32.95;;;;;;;-139.48;100.00;61774.03;5040348;28;20059;-69
2021/05/01 04:41:34;;;;;;;57.70;31.85;;;;;;;-139.48;100.00;61774.03;5040203;28;20052;-69
2021/05/01 04:44:20;;;;;;;63.55;30.42;;;;;;;-139.48;100.00;61774.03;5055020;28;20094;-68
2021/05/01 04:47:04;;;;;;;45.97;30.08;;;;;;;-139.48;100.00;61774.03;5040085;28;20043;-70
2021/05/01 04:49:48;;;;;;;47.45;30.02;;;;;;;-139.48;100.00;61774.03;5040192;28;20055;-69
2021/05/01 04:52:31;;;;;;;43.63;28.92;;;;;;;-139.48;100.00;61774.03;5039745;28;20095;-69
2021/05/01 04:55:16;;;;;;;153.27;31.67;;;;;;;-139.48;100.00;61774.03;5054828;28;20055;-69
2021/05/01 04:58:00;;;;;;;177.02;30.30;;;;;;;-139.48;100.00;61774.03;5055063;28;20051;-69
2021/05/01 05:00:44;;;;;;;58.70;27.92;;;;;;;-139.48;100.00;61774.03;5055080;28;20048;-70
2021/05/01 05:03:28;;;;;;;115.65;29.73;;;;;;;-139.48;100.00;61774.03;5040020;28;20076;-70
2021/05/01 05:06:12;;;;;;;46.70;30.02;;;;;;;-139.48;100.00;61774.03;5025865;28;20098;-70
2021/05/01 05:08:56;;;;;;;43.78;27.92;;;;;;;-139.48;100.00;61774.03;5054620;28;20051;-70
2021/05/01 05:11:40;;;;;;;49.80;30.08;;;;;;;-139.48;100.00;61774.03;5054545;28;20453;-69
2021/05/01 05:14:24;;;;;;;44.75;27.88;;;;;;;-139.48;100.00;61774.03;5054595;28;20040;-68
2021/05/01 05:17:08;;;;;;;45.17;28.90;;;;;;;-139.48;100.00;61774.03;5054747;28;20414;-69
2021/05/01 05:19:52;;;;;;;138.70;29.45;;;;;;;-139.48;100.00;61774.03;5039622;28;20052;-69
2021/05/01 05:22:36;;;;;;;40.95;27.60;;;;;;;-139.48;100.00;61774.03;5039267;28;20619;-70
2021/05/01 05:25:20;;;;;;;45.58;28.23;;;;;;;-139.48;100.00;61774.03;5025491;28;20068;-69
2021/05/01 05:28:04;;;;;;;41.33;28.02;;;;;;;-139.48;100.00;61774.03;5053552;28;20110;-69
2021/05/01 05:30:48;;;;;;;40.55;27.65;;;;;;;-139.48;100.00;61774.03;5026449;28;20079;-70
2021/05/01 05:33:32;;;;;;;110.03;28.40;;;;;;;-139.48;100.00;61774.03;5054135;28;20043;-70
2021/05/01 05:36:16;;;;;;;40.10;26.48;;;;;;;-139.48;100.00;61774.03;5039002;28;20094;-70
2021/05/01 05:39:15;;;;;;;50.25;26.70;;;;;;;-139.48;100.00;61774.03;5039043;28;20107;-70
2021/05/01 05:42:00;;;;;;;36.40;24.98;;;;;;;-139.48;100.00;61774.03;5025617;28;20157;-70
2021/05/01 05:44:45;;;;;;;38.20;27.95;;;;;;;-139.48;100.00;61774.03;5054182;28;20083;-70
2021/05/01 05:47:30;;;;;;;37.90;26.33;;;;;;;-139.48;100.00;61774.03;5025385;28;20051;-70
2021/05/01 05:50:13;;;;;;;43.90;27.33;;;;;;;-139.48;100.00;61774.03;5025205;28;20052;-69
2021/05/01 05:52:58;;;;;;;40.80;27.85;;;;;;;-139.48;100.00;61774.03;5053859;28;20040;-69
2021/05/01 05:55:41;;;;;;;43.28;28.58;;;;;;;-139.48;100.00;61774.03;5054029;28;20068;-69
2021/05/01 05:58:25;;;;;;;41.15;27.50;;;;;;;-139.48;100.00;61774.03;5038825;28;20055;-69
2021/05/01 06:01:11;;;;;;;47.78;30.27;;;;;;;-139.48;100.00;61774.03;5038818;28;20055;-69
2021/05/01 06:03:55;;;;;;;42.03;27.58;;;;;;;-139.48;100.00;61774.03;5038337;28;20456;-69
2021/05/01 06:06:42;;;;;;;44.70;29.48;;;;;;;-139.48;100.00;61774.03;5024704;28;20052;-66
2021/05/01 06:09:27;;;;;;;42.63;28.88;;;;;;;-139.48;100.00;61774.03;5038707;28;20098;-69
2021/05/01 06:12:12;;;;;;;40.85;28.25;;;;;;;-139.48;100.00;61774.03;5038604;28;20489;-69
2021/05/01 06:14:58;;;;;;;45.55;30.05;;;;;;;-139.48;100.00;61774.03;5038341;28;20517;-68
2021/05/01 06:17:44;;;;;;;43.70;30.13;;;;;;;-139.48;100.00;61774.03;5024589;28;20094;-69
2021/05/01 06:20:29;;;;;;;44.70;29.67;;;;;;;-139.48;100.00;61774.03;5053589;28;20094;-69
2021/05/01 06:23:19;;;;;;;43.08;30.45;;;;;;;-139.48;100.00;61774.03;5053481;28;20040;-69
2021/05/01 06:26:04;;;;;;;43.45;29.25;;;;;;;-139.48;100.00;61774.03;5053204;28;20043;-69
2021/05/01 06:28:48;;;;;;;41.35;28.50;;;;;;;-139.48;100.00;61774.03;5024172;28;20141;-69
2021/05/01 06:31:38;;;;;;;43.38;30.40;;;;;;;-139.48;100.00;61774.03;5038353;28;20067;-69
2021/05/01 06:34:22;;;;;;;47.40;32.03;;;;;;;-139.48;100.00;61774.03;5039441;28;20052;-70
2021/05/01 06:37:07;;;;;;;47.88;32.83;;;;;;;-139.48;100.00;61774.03;5038272;28;20098;-70
2021/05/01 06:39:58;;;;;;;48.10;31.38;;;;;;;-139.48;100.00;61774.03;5037919;28;20059;-70
2021/05/01 06:42:50;;;;;;;43.50;30.13;;;;;;;-139.48;100.00;61774.03;5024901;28;20095;-70
2021/05/01 06:45:39;;;;;;;42.20;29.42;;;;;;;-139.48;100.00;61774.03;5038287;28;20095;-70
2021/05/01 06:48:25;;;;;;;43.17;28.33;;;;;;;-139.48;100.00;61774.03;5037905;28;20414;-70
2021/05/01 06:51:09;;;;;;;42.17;28.27;;;;;;;-139.48;100.00;61774.03;5053313;28;20052;-70
2021/05/01 06:53:53;;;;;;;38.42;28.27;;;;;;;-139.48;100.00;61774.03;5038112;28;20128;-67
2021/05/01 06:56:40;;;;;;;41.25;28.48;;;;;;;-139.48;100.00;61774.03;5024452;28;20056;-67
2021/05/01 06:59:25;;;;;;;38.83;26.38;;;;;;;-139.48;100.00;61774.03;5038132;28;20402;-66
2021/05/01 07:02:09;;;;;;;38.25;27.83;;;;;;;-139.48;100.00;61774.03;5037753;28;20044;-68
2021/05/01 07:04:55;;;;;;;36.38;25.50;;;;;;;-139.48;100.00;61774.03;5024260;28;20094;-66
2021/05/01 07:07:39;;;;;;;37.45;26.42;;;;;;;-139.48;100.00;61774.03;5053130;28;20048;-69
2021/05/01 07:10:26;;;;;;;35.55;26.45;;;;;;;-139.48;100.00;61774.03;5037864;28;20174;-69
2021/05/01 07:13:13;;;;;;;37.95;27.73;;;;;;;-139.48;100.00;61774.03;5052614;28;20091;-69
2021/05/01 07:16:01;;;;;;;37.88;27.65;;;;;;;-139.48;100.00;61774.03;5038012;28;20574;-69
2021/05/01 07:18:46;;;;;;;38.20;27.27;;;;;;;-139.48;100.00;61774.03;5038570;28;20132;-69
2021/05/01 07:21:30;;;;;;;38.13;26.88;;;;;;;-139.48;100.00;61774.03;5037893;28;20048;-69
2021/05/01 07:24:14;;;;;;;42.00;28.70;;;;;;;-139.48;100.00;61774.03;5037309;28;20553;-69
2021/05/01 07:27:00;;;;;;;38.92;28.35;;;;;;;-139.48;100.00;61774.03;5053120;28;20091;-69
2021/05/01 07:29:45;;;;;;;38.75;28.92;;;;;;;-139.48;100.00;61774.03;5037828;28;20090;-67
2021/05/01 07:32:34;;;;;;;38.17;28.50;;;;;;;-139.48;100.00;61774.03;5037673;28;20489;-69
2021/05/01 07:35:19;;;;;;;40.45;29.08;;;;;;;-139.48;100.00;61774.03;5037432;28;20048;-69
2021/05/01 07:38:11;;;;;;;40.38;29.65;;;;;;;-139.48;100.00;61774.03;5037636;28;20501;-69
2021/05/01 07:40:58;;;;;;;40.75;29.63;;;;;;;-139.48;100.00;61774.03;5037778;28;20040;-69
2021/05/01 07:43:46;;;;;;;39.95;29.42;;;;;;;-139.48;100.00;61774.03;5037344;28;20140;-69
2021/05/01 07:46:32;;;;;;;39.28;29.15;;;;;;;-139.48;100.00;61774.03;5037404;28;20051;-68
2021/05/01 07:49:15;;;;;;;39.65;29.40;;;;;;;-139.48;100.00;61774.03;5037050;28;20098;-68
2021/05/01 07:52:00;;;;;;;41.25;30.08;;;;;;;-139.48;100.00;61774.03;5038547;28;20075;-68
2021/05/01 07:54:44;;;;;;;42.42;30.10;;;;;;;-139.48;100.00;61774.03;5055346;28;20051;-68
2021/05/01 07:57:29;;;;;;;41.45;30.95;;;;;;;-139.48;100.00;61774.03;5055546;28;20144;-68
2021/05/01 08:00:18;;;;;;;41.38;30.63;;;;;;;-139.48;100.00;61774.03;5040368;28;20043;-67
2021/05/01 08:03:05;;;;;;;40.35;29.35;;;;;;;-139.48;100.00;61774.03;5055763;28;20044;-68
2021/05/01 08:05:49;;;;;;;40.22;28.70;;;;;;;-139.48;100.00;61774.03;5040267;28;20497;-69
2021/05/01 08:08:34;;;;;;;38.75;29.50;;;;;;;-139.48;100.00;61774.03;5026106;28;20413;-68
2021/05/01 08:11:19;;;;;;;39.83;28.73;;;;;;;-139.48;100.00;61774.03;5026553;28;20060;-68
2021/05/01 08:14:04;;;;;;;37.58;27.27;;;;;;;-139.48;100.00;61774.03;5026155;28;20110;-68
2021/05/01 08:16:49;;;;;;;39.45;29.15;;;;;;;-139.48;100.00;61774.03;5055500;28;20071;-68
2021/05/01 08:19:34;;;;;;;42.33;29.55;;;;;;;-139.48;100.00;61774.03;5025804;28;20048;-68
2021/05/01 08:22:19;;;;;;;42.28;29.20;;;;;;;-139.48;100.00;61774.03;5040009;28;20044;-68
2021/05/01 08:25:05;;;;;;;35.72;27.23;;;;;;;-139.48;100.00;61774.03;5039684;28;20061;-68
2021/05/01 08:27:49;;;;;;;35.65;26.30;;;;;;;-139.48;100.00;61774.03;5039634;28;20052;-69
2021/05/01 08:30:33;;;;;;;35.78;26.98;;;;;;;-139.48;100.00;61774.03;5055056;28;20060;-68
2021/05/01 08:33:17;;;;;;;35.33;27.00;;;;;;;-139.48;100.00;61774.03;5039495;28;20095;-67
2021/05/01 08:36:01;;;;;;;37.25;26.90;;;;;;;-139.48;100.00;61774.03;5054856;28;20056;-67
2021/05/01 08:38:45;;;;;;;35.42;26.25;;;;;;;-139.48;100.00;61774.03;5040105;28;20044;-66
2021/05/01 08:41:29;;;;;;;43.08;29.63;;;;;;;-139.48;100.00;61774.03;5040316;28;20406;-67
2021/05/01 08:44:14;;;;;;;38.50;28.88;;;;;;;-139.48;100.00;61774.03;5039927;28;20068;-67
2021/05/01 08:46:58;;;;;;;38.72;29.45;;;;;;;-139.48;100.00;61774.03;5055230;28;20048;-67
2021/05/01 08:49:42;;;;;;;37.22;28.15;;;;;;;-139.48;100.00;61774.03;5026227;28;20047;-67
2021/05/01 08:52:26;;;;;;;40.45;28.90;;;;;;;-139.48;100.00;61774.03;5025663;28;20094;-67
2021/05/01 08:55:09;;;;;;;36.13;28.17;;;;;;;-139.48;100.00;61774.03;5039696;28;20426;-67
2021/05/01 08:57:54;;;;;;;36.65;27.23;;;;;;;-139.48;100.00;61774.03;5055087;28;20048;-67
2021/05/01 09:00:40;;;;;;;42.83;28.85;;;;;;;-139.48;100.00;61774.03;5040036;28;20501;-67
2021/05/01 09:03:25;;;;;;;40.88;29.00;;;;;;;-139.48;100.00;61774.03;5054753;28;20075;-67
2021/05/01 09:06:10;;;;;;;43.03;30.67;;;;;;;-139.48;100.00;61774.03;5039803;28;20051;-67
2021/05/01 09:08:59;;;;;;;36.38;26.70;;;;;;;-139.48;100.00;61774.03;5039768;28;20094;-67
2021/05/01 09:11:45;;;;;;;36.85;27.83;;;;;;;-139.48;100.00;61774.03;5054731;28;20110;-67
2021/05/01 09:14:30;;;;;;;33.90;26.52;;;;;;;-139.48;100.00;61774.03;5054619;28;20035;-67
2021/05/01 09:17:18;;;;;;;38.58;27.60;;;;;;;-139.48;100.00;61774.03;5039534;28;20056;-65
2021/05/01 09:20:10;;;;;;;36.72;26.83;;;;;;;-139.48;100.00;61774.03;5039338;28;20055;-67
2021/05/01 09:23:01;;;;;;;34.40;24.92;;;;;;;-139.48;100.00;61774.03;5039445;28;20043;-67
2021/05/01 09:25:59;;;;;;;37.42;26.40;;;;;;;-139.48;100.00;61774.03;5054085;28;20410;-67
2021/05/01 09:28:45;;;;;;;33.22;25.60;;;;;;;-139.48;100.00;61774.03;5053660;28;20488;-67
2021/05/01 09:31:40;;;;;;;36.78;25.40;;;;;;;-139.48;100.00;61774.03;5038951;28;20127;-67
2021/05/01 09:34:38;;;;;;;35.55;27.73;;;;;;;-139.48;100.00;61774.03;5024145;28;20047;-67
2021/05/01 09:37:25;;;;;;;34.40;26.55;;;;;;;-139.48;100.00;61774.03;5038379;28;20107;-65
2021/05/01 09:40:09;;;;;;;36.08;26.63;;;;;;;-139.48;100.00;61774.03;5038357;28;20068;-66
2021/05/01 09:43:07;;;;;;;40.10;27.95;;;;;;;-139.48;100.00;61774.03;5039299;28;20044;-67
2021/05/01 09:45:51;;;;;;;33.72;25.77;;;;;;;-139.48;100.00;61774.03;5039197;28;20640;-67
2021/05/01 09:48:35;;;;;;;36.25;28.20;;;;;;;-139.48;100.00;61774.03;5053871;28;20135;-67
2021/05/01 09:51:19;;;;;;;35.35;25.23;;;;;;;-139.48;100.00;61774.03;5039017;28;20079;-66
2021/05/01 09:54:03;;;;;;;33.78;25.23;;;;;;;-139.48;100.00;61774.03;5038631;28;20052;-67
2021/05/01 09:56:48;;;;;;;28.05;22.90;;;;;;;-139.48;100.00;61774.03;5038597;28;20056;-67
2021/05/01 09:59:48;;;;;;;32.97;24.40;;;;;;;-139.48;100.00;61774.03;5038612;28;20055;-67
2021/05/01 10:02:34;;;;;;;34.17;24.75;;;;;;;-139.48;100.00;61774.03;5053881;28;20040;-67
2021/05/01 10:05:18;;;;;;;31.40;25.08;;;;;;;-139.48;100.00;61774.03;5038613;28;20056;-67
2021/05/01 10:08:02;;;;;;;30.70;25.17;;;;;;;-139.48;100.00;61774.03;5038760;28;20166;-67
2021/05/01 10:10:48;;;;;;;29.75;23.50;;;;;;;-139.48;100.00;61774.03;5038675;28;20051;-67
2021/05/01 10:13:35;;;;;;;28.77;22.05;;;;;;;-139.48;100.00;61774.03;5024215;28;20099;-67
2021/05/01 10:16:20;;;;;;;28.17;23.17;;;;;;;-139.48;100.00;61774.03;5038234;28;20060;-67
2021/05/01 10:19:09;;;;;;;34.20;24.58;;;;;;;-139.48;100.00;61774.03;5038349;28;20048;-67
2021/05/01 10:21:54;;;;;;;29.85;24.17;;;;;;;-139.48;100.00;61774.03;5038496;28;20052;-67
2021/05/01 10:24:42;;;;;;;29.67;23.13;;;;;;;-139.48;100.00;61774.03;5024484;28;20044;-66
2021/05/01 10:27:27;;;;;;;29.00;23.38;;;;;;;-139.48;100.00;61774.03;5038605;28;20056;-67
2021/05/01 10:30:28;;;;;;;28.77;23.50;;;;;;;-139.48;100.00;61774.03;5038108;28;20052;-67
2021/05/01 10:33:33;;;;;;;29.33;22.58;;;;;;;-139.48;100.00;61774.03;5037780;28;20516;-67
2021/05/01 10:36:23;;;;;;;27.13;21.55;;;;;;;-139.48;100.00;61774.03;5038568;28;20526;-67
2021/05/01 10:39:09;;;;;;;28.60;21.90;;;;;;;-139.48;100.00;61774.03;5053199;28;20055;-67
2021/05/01 10:41:55;;;;;;;26.02;21.48;;;;;;;-139.48;100.00;61774.03;5053361;28;20043;-67
2021/05/01 10:44:39;;;;;;;27.25;21.42;;;;;;;-139.48;100.00;61774.03;5037891;28;20166;-67
2021/05/01 10:47:24;;;;;;;29.00;22.75;;;;;;;-139.48;100.00;61774.03;5038097;28;20102;-67
2021/05/01 10:50:21;;;;;;;25.75;21.27;;;;;;;-139.48;100.00;61774.03;5038384;28;20044;-67
2021/05/01 10:53:06;;;;;;;26.55;20.63;;;;;;;-139.48;100.00;61774.03;5053156;28;20071;-67
2021/05/01 10:55:52;;;;;;;29.27;21.73;;;;;;;-139.48;100.00;61774.03;5052924;28;20160;-67
2021/05/01 10:58:44;;;;;;;27.83;21.60;;;;;;;-139.48;100.00;61774.03;5053187;28;20052;-67
2021/05/01 11:01:33;;;;;;;27.02;21.38;;;;;;;-139.48;100.00;61774.03;5038062;28;20047;-67
2021/05/01 11:04:20;;;;;;;25.45;20.40;;;;;;;-139.48;100.00;61774.03;5053063;28;20048;-67
2021/05/01 11:07:11;;;;;;;31.33;23.95;;;;;;;-139.48;100.00;61774.03;5037781;28;20080;-67
2021/05/01 11:10:02;;;;;;;30.67;23.35;;;;;;;-139.48;100.00;61774.03;5038074;28;20056;-66
2021/05/01 11:12:52;;;;;;;27.38;21.98;;;;;;;-139.48;100.00;61774.03;5053198;28;20536;-67
2021/05/01 11:15:45;;;;;;;28.60;22.27;;;;;;;-139.48;100.00;61774.03;5052755;28;20060;-67
2021/05/01 11:18:34;;;;;;;29.98;23.77;;;;;;;-139.48;100.00;61774.03;5038222;28;20051;-67
2021/05/01 11:21:21;;;;;;;29.13;22.40;;;;;;;-139.48;100.00;61774.03;5053035;28;20577;-67
2021/05/01 11:24:06;;;;;;;27.05;21.40;;;;;;;-139.48;100.00;61774.03;5037477;28;20493;-67
2021/05/01 11:26:50;;;;;;;29.42;22.15;;;;;;;-139.48;100.00;61774.03;5054177;28;20452;-67
2021/05/01 11:29:35;;;;;;;26.95;21.48;;;;;;;-139.48;100.00;61774.03;5041723;28;20147;-66
2021/05/01 11:32:19;;;;;;;28.60;22.65;;;;;;;-139.48;100.00;61774.03;5056714;28;20051;-67
2021/05/01 11:35:08;;;;;;;30.75;23.17;;;;;;;-139.48;100.00;61774.03;5056491;28;20178;-67
2021/05/01 11:37:56;;;;;;;30.48;23.40;;;;;;;-139.48;100.00;61774.03;5056641;28;20497;-67
2021/05/01 11:40:46;;;;;;;32.00;23.85;;;;;;;-139.48;100.00;61774.03;5027402;28;20532;-67
2021/05/01 11:43:31;;;;;;;31.10;22.60;;;;;;;-139.48;100.00;61774.03;5041620;28;20071;-67
2021/05/01 11:46:18;;;;;;;29.92;22.52;;;;;;;-139.48;100.00;61774.03;5041160;28;20140;-67
2021/05/01 11:49:09;;;;;;;30.33;23.75;;;;;;;-139.48;100.00;61774.03;5056099;28;20156;-67
2021/05/01 11:52:38;;;;;;;33.05;24.23;;;;;;;-139.48;100.00;61774.03;5041307;28;20056;-67
2021/05/01 11:55:27;;;;;;;27.35;22.55;;;;;;;-139.48;100.00;61774.03;5045249;28;20075;-67
2021/05/01 11:58:33;;;;;;;27.80;22.05;;;;;;;-139.48;100.00;61774.03;5041474;28;20051;-67
2021/05/01 12:01:20;;;;;;;29.42;23.10;;;;;;;-139.48;100.00;61774.03;5027319;28;20056;-67
2021/05/01 12:04:05;;;;;;;26.75;21.33;;;;;;;-139.48;100.00;61774.03;5055963;28;20060;-67
2021/05/01 12:06:55;;;;;;;24.35;20.52;;;;;;;-139.48;100.00;61774.03;5040761;28;20099;-67
2021/05/01 12:09:40;;;;;;;30.52;22.15;;;;;;;-139.48;100.00;61774.03;5040757;28;20048;-67
2021/05/01 12:12:24;;;;;;;25.77;20.90;;;;;;;-139.48;100.00;61774.03;5055651;28;20140;-65
2021/05/01 12:15:13;;;;;;;30.63;22.92;;;;;;;-139.48;100.00;61774.03;5040551;28;20051;-67
2021/05/01 12:17:57;;;;;;;26.35;20.08;;;;;;;-139.48;100.00;61774.03;5055903;28;20520;-67